createdAt,value
2018-05-21T00:00:47.203Z,12.74
2018-05-21T00:03:20.090Z,12.69
2018-05-21T00:05:52.637Z,12.68
2018-05-21T00:08:25.181Z,12.68
2018-05-21T00:10:57.691Z,12.71
2018-05-21T00:13:30.229Z,12.66
2018-05-21T00:16:02.746Z,12.59
2018-05-21T00:18:36.542Z,12.51
2018-05-21T00:21:09.087Z,12.47
2018-05-21T00:23:41.630Z,12.51
2018-05-21T00:26:14.176Z,12.57
2018-05-21T00:28:46.728Z,12.58
2018-05-21T00:31:19.232Z,12.59
2018-05-21T00:33:51.830Z,12.56
2018-05-21T00:36:24.352Z,12.58
2018-05-21T00:38:56.907Z,12.58
2018-05-21T00:41:29.434Z,12.55
2018-05-21T00:44:01.955Z,12.46
2018-05-21T00:46:36.119Z,12.40
2018-05-21T00:49:08.697Z,12.38
2018-05-21T00:51:41.243Z,12.41
2018-05-21T00:54:13.790Z,12.40
2018-05-21T00:56:46.398Z,12.39
2018-05-21T00:59:18.922Z,12.36
2018-05-21T01:01:51.476Z,12.33
2018-05-21T01:04:24.014Z,12.28
2018-05-21T01:06:56.609Z,12.29
2018-05-21T01:09:29.125Z,12.24
2018-05-21T01:12:01.682Z,12.23
2018-05-21T01:14:34.244Z,12.23
2018-05-21T01:17:06.800Z,12.23
2018-05-21T01:19:39.329Z,12.18
2018-05-21T01:22:11.879Z,12.15
2018-05-21T01:24:44.425Z,12.12
2018-05-21T01:27:16.983Z,12.08
2018-05-21T01:29:49.498Z,11.97
2018-05-21T01:32:22.043Z,11.92
2018-05-21T01:34:54.567Z,11.88
2018-05-21T01:37:27.117Z,11.78
2018-05-21T01:39:59.659Z,11.74
2018-05-21T01:42:32.207Z,11.72
2018-05-21T01:45:04.785Z,11.72
2018-05-21T01:47:37.365Z,11.72
2018-05-21T01:50:09.905Z,11.70
2018-05-21T01:52:42.461Z,11.68
2018-05-21T01:55:14.976Z,11.62
2018-05-21T01:57:47.555Z,11.61
2018-05-21T02:00:20.071Z,11.60
2018-05-21T02:02:52.652Z,11.56
2018-05-21T02:05:25.183Z,11.52
2018-05-21T02:07:57.720Z,11.46
2018-05-21T02:10:30.234Z,11.41
2018-05-21T02:13:02.782Z,11.37
2018-05-21T02:15:36.458Z,11.31
2018-05-21T02:18:09.011Z,11.25
2018-05-21T02:20:41.537Z,11.21
2018-05-21T02:23:14.095Z,11.19
2018-05-21T02:25:46.620Z,11.19
2018-05-21T02:28:19.172Z,11.18
2018-05-21T02:30:51.704Z,11.11
2018-05-21T02:33:24.238Z,11.08
2018-05-21T02:35:56.746Z,11.05
2018-05-21T02:38:29.279Z,11.03
2018-05-21T02:41:01.793Z,11.01
2018-05-21T02:43:34.388Z,10.99
2018-05-21T02:46:06.966Z,10.97
2018-05-21T02:48:39.521Z,10.94
2018-05-21T02:51:12.071Z,10.88
2018-05-21T02:53:44.613Z,10.85
2018-05-21T02:56:17.128Z,10.81
2018-05-21T02:58:49.687Z,10.80
2018-05-21T03:01:22.466Z,10.75
2018-05-21T03:03:55.002Z,10.73
2018-05-21T03:06:27.528Z,10.71
2018-05-21T03:09:00.054Z,10.67
2018-05-21T03:11:32.570Z,10.65
2018-05-21T03:14:06.474Z,10.62
2018-05-21T03:16:39.009Z,10.56
2018-05-21T03:19:11.570Z,10.52
2018-05-21T03:21:44.080Z,10.48
2018-05-21T03:24:16.605Z,10.43
2018-05-21T03:26:49.233Z,10.42
2018-05-21T03:29:21.769Z,10.43
2018-05-21T03:31:54.308Z,10.44
2018-05-21T03:34:26.837Z,10.44
2018-05-21T03:36:59.348Z,10.46
2018-05-21T03:39:31.880Z,10.49
2018-05-21T03:42:04.831Z,10.46
2018-05-21T03:44:38.127Z,10.47
2018-05-21T03:47:10.660Z,10.49
2018-05-21T03:49:43.222Z,10.49
2018-05-21T03:52:15.762Z,10.46
2018-05-21T03:54:48.306Z,10.46
2018-05-21T03:57:20.866Z,10.42
2018-05-21T04:00:06.784Z,10.42
2018-05-21T04:02:51.256Z,10.43
2018-05-21T04:05:23.780Z,10.48
2018-05-21T04:07:56.323Z,10.49
2018-05-21T04:10:28.840Z,10.51
2018-05-21T04:13:01.369Z,10.57
2018-05-21T04:15:33.880Z,10.63
2018-05-21T04:18:07.754Z,10.72
2018-05-21T04:20:40.268Z,10.81
2018-05-21T04:23:12.834Z,10.95
2018-05-21T04:25:45.352Z,11.03
2018-05-21T04:28:17.902Z,11.15
2018-05-21T04:30:50.534Z,11.27
2018-05-21T04:33:23.060Z,11.44
2018-05-21T04:35:55.571Z,11.67
2018-05-21T04:38:28.102Z,11.89
2018-05-21T04:41:00.607Z,12.13
2018-05-21T04:43:33.147Z,12.37
2018-05-21T04:46:12.179Z,12.61
2018-05-21T04:48:44.729Z,12.84
2018-05-21T04:51:17.250Z,12.99
2018-05-21T04:53:49.789Z,13.21
2018-05-21T04:56:22.301Z,13.42
2018-05-21T04:58:54.841Z,13.64
2018-05-21T05:01:27.353Z,13.82
2018-05-21T05:03:59.882Z,14.03
2018-05-21T05:06:32.385Z,14.37
2018-05-21T05:09:07.183Z,14.63
2018-05-21T05:11:39.716Z,14.96
2018-05-21T05:14:12.240Z,15.30
2018-05-21T05:16:44.789Z,15.46
2018-05-21T05:19:17.330Z,15.70
2018-05-21T05:21:49.882Z,15.89
2018-05-21T05:24:22.414Z,15.98
2018-05-21T05:26:54.921Z,16.17
2018-05-21T05:29:27.450Z,16.22
2018-05-21T05:31:59.960Z,16.30
2018-05-21T05:34:32.487Z,16.40
2018-05-21T05:37:05.713Z,16.56
2018-05-21T05:39:38.249Z,16.80
2018-05-21T05:42:10.884Z,17.02
2018-05-21T05:44:43.343Z,17.28
2018-05-21T05:47:15.867Z,17.35
2018-05-21T05:49:48.412Z,17.03
2018-05-21T05:52:20.942Z,17.21
2018-05-21T05:54:53.470Z,17.38
2018-05-21T05:57:25.980Z,17.58
2018-05-21T05:59:58.508Z,17.85
2018-05-21T06:02:31.018Z,17.96
2018-05-21T06:05:03.538Z,18.00
2018-05-21T06:07:36.752Z,18.00
2018-05-21T06:10:09.317Z,18.18
2018-05-21T06:12:41.848Z,18.37
2018-05-21T06:15:14.409Z,18.72
2018-05-21T06:17:46.946Z,19.02
2018-05-21T06:20:19.472Z,19.03
2018-05-21T06:22:52.109Z,19.29
2018-05-21T06:25:24.632Z,19.28
2018-05-21T06:27:57.182Z,19.48
2018-05-21T06:30:29.706Z,19.50
2018-05-21T06:33:04.477Z,19.63
2018-05-21T06:35:37.063Z,19.72
2018-05-21T06:38:09.611Z,19.60
2018-05-21T06:40:42.165Z,19.51
2018-05-21T06:43:14.715Z,19.82
2018-05-21T06:45:47.274Z,20.35
2018-05-21T06:48:19.796Z,20.87
2018-05-21T06:50:52.357Z,20.97
2018-05-21T06:53:24.886Z,20.82
2018-05-21T06:55:57.433Z,21.05
2018-05-21T06:58:29.938Z,20.98
2018-05-21T07:01:02.672Z,21.21
2018-05-21T07:03:35.251Z,21.12
2018-05-21T07:06:07.811Z,21.49
2018-05-21T07:08:40.342Z,21.74
2018-05-21T07:11:12.893Z,21.96
2018-05-21T07:13:45.414Z,22.17
2018-05-21T07:16:17.961Z,22.20
2018-05-21T07:18:50.489Z,22.03
2018-05-21T07:21:23.032Z,22.04
2018-05-21T07:23:55.590Z,22.21
2018-05-21T07:26:28.189Z,22.15
2018-05-21T07:29:00.729Z,22.33
2018-05-21T07:31:33.268Z,22.43
2018-05-21T07:34:06.125Z,22.77
2018-05-21T07:36:38.658Z,22.96
2018-05-21T07:39:11.233Z,22.92
2018-05-21T07:41:43.831Z,22.92
2018-05-21T07:44:16.376Z,22.72
2018-05-21T07:46:48.912Z,22.67
2018-05-21T07:49:21.710Z,22.76
2018-05-21T07:51:54.239Z,22.95
2018-05-21T07:54:26.777Z,23.04
2018-05-21T07:56:59.360Z,23.29
2018-05-21T07:59:31.879Z,23.29
2018-05-21T08:02:06.547Z,23.41
2018-05-21T08:04:39.114Z,23.46
2018-05-21T08:07:11.661Z,23.16
2018-05-21T08:09:44.212Z,23.36
2018-05-21T08:12:16.751Z,23.63
2018-05-21T08:14:49.400Z,23.35
2018-05-21T08:17:21.838Z,23.35
2018-05-21T08:19:54.402Z,23.57
2018-05-21T08:22:26.913Z,24.17
2018-05-21T08:24:59.440Z,24.88
2018-05-21T08:27:32.247Z,25.30
2018-05-21T08:30:06.582Z,25.14
2018-05-21T08:32:39.113Z,25.14
2018-05-21T08:35:11.660Z,25.68
2018-05-21T08:37:44.181Z,25.47
2018-05-21T08:40:16.737Z,25.29
2018-05-21T08:42:49.329Z,25.16
2018-05-21T08:45:21.806Z,25.44
2018-05-21T08:47:54.385Z,26.39
2018-05-21T08:50:26.915Z,27.99
2018-05-21T08:52:59.423Z,27.75
2018-05-21T08:55:31.946Z,29.58
2018-05-21T08:58:04.608Z,30.47
2018-05-21T09:00:38.718Z,29.46
2018-05-21T09:03:11.389Z,28.69
2018-05-21T09:05:44.001Z,27.91
2018-05-21T09:08:16.825Z,28.07
2018-05-21T09:10:49.780Z,29.68
2018-05-21T09:13:22.419Z,30.44
2018-05-21T09:15:54.964Z,29.62
2018-05-21T09:18:27.479Z,28.53
2018-05-21T09:21:00.012Z,28.76
2018-05-21T09:23:32.523Z,28.69
2018-05-21T09:26:05.335Z,28.52
2018-05-21T09:28:38.157Z,28.00
2018-05-21T09:31:10.712Z,27.58
2018-05-21T09:33:43.228Z,26.48
2018-05-21T09:36:15.796Z,26.46
2018-05-21T09:38:48.497Z,26.52
2018-05-21T09:41:21.467Z,26.62
2018-05-21T09:43:53.974Z,26.67
2018-05-21T09:46:26.550Z,26.62
2018-05-21T09:48:59.061Z,26.03
2018-05-21T09:51:31.590Z,25.92
2018-05-21T09:54:04.097Z,26.34
2018-05-21T09:56:37.662Z,26.48
2018-05-21T09:59:10.224Z,26.62
2018-05-21T10:01:42.817Z,26.81
2018-05-21T10:04:15.397Z,26.72
2018-05-21T10:06:47.952Z,26.68
2018-05-21T10:09:20.524Z,26.77
2018-05-21T10:11:53.164Z,26.09
2018-05-21T10:14:25.742Z,26.13
2018-05-21T10:16:58.349Z,26.47
2018-05-21T10:19:31.159Z,26.21
2018-05-21T10:22:03.752Z,26.50
2018-05-21T10:24:40.609Z,26.76
2018-05-21T10:27:13.172Z,26.67
2018-05-21T10:29:45.682Z,26.79
2018-05-21T10:32:18.219Z,27.12
2018-05-21T10:34:50.765Z,27.11
2018-05-21T10:37:23.340Z,27.25
2018-05-21T10:39:56.006Z,27.06
2018-05-21T10:42:28.849Z,27.09
2018-05-21T10:45:01.665Z,26.96
2018-05-21T10:47:34.592Z,26.88
2018-05-21T10:50:07.952Z,27.33
2018-05-21T10:52:40.845Z,26.74
2018-05-21T10:55:13.870Z,26.85
2018-05-21T10:57:46.810Z,26.87
2018-05-21T11:00:19.823Z,27.15
2018-05-21T11:02:53.198Z,27.48
2018-05-21T11:05:26.241Z,27.62
2018-05-21T11:07:58.866Z,27.19
2018-05-21T11:10:31.534Z,27.15
2018-05-21T11:13:06.384Z,27.38
2018-05-21T11:15:39.773Z,27.31
2018-05-21T11:18:12.689Z,27.79
2018-05-21T11:20:45.748Z,28.14
2018-05-21T11:23:18.731Z,28.06
2018-05-21T11:25:51.752Z,27.83
2018-05-21T11:28:24.342Z,27.80
2018-05-21T11:30:57.049Z,28.50
2018-05-21T11:33:30.817Z,28.61
2018-05-21T11:36:03.920Z,28.55
2018-05-21T11:38:37.448Z,28.12
2018-05-21T11:41:10.548Z,27.58
2018-05-21T11:43:43.353Z,27.59
2018-05-21T11:46:16.404Z,27.77
2018-05-21T11:48:50.440Z,27.83
2018-05-21T11:51:24.776Z,27.84
2018-05-21T11:53:58.195Z,27.68
2018-05-21T11:56:31.119Z,27.75
2018-05-21T11:59:04.282Z,27.67
2018-05-21T12:01:37.749Z,27.54
2018-05-21T12:04:10.588Z,28.03
2018-05-21T12:06:43.509Z,28.57
2018-05-21T12:09:16.280Z,28.56
2018-05-21T12:11:49.001Z,27.68
2018-05-21T12:14:21.906Z,27.45
2018-05-21T12:16:55.007Z,27.14
2018-05-21T12:19:27.976Z,27.11
2018-05-21T12:22:00.967Z,27.14
2018-05-21T12:24:33.882Z,26.93
2018-05-21T12:27:08.336Z,27.18
2018-05-21T12:29:41.340Z,27.20
2018-05-21T12:32:14.574Z,27.22
2018-05-21T12:34:47.403Z,26.68
2018-05-21T12:37:20.299Z,26.45
2018-05-21T12:39:53.133Z,26.80
2018-05-21T12:42:26.159Z,26.77
2018-05-21T12:44:58.938Z,27.05
2018-05-21T12:47:32.694Z,27.09
2018-05-21T12:50:05.925Z,27.27
2018-05-21T12:52:39.027Z,27.29
2018-05-21T12:55:12.034Z,26.77
2018-05-21T12:57:44.980Z,27.10
2018-05-21T13:00:17.886Z,27.12
2018-05-21T13:02:50.878Z,26.79
2018-05-21T13:05:23.634Z,27.08
2018-05-21T13:07:56.259Z,26.94
2018-05-21T13:10:29.221Z,27.09
2018-05-21T13:13:02.172Z,27.07
2018-05-21T13:18:13.958Z,27.31
2018-05-21T13:20:46.934Z,27.24
2018-05-21T13:23:19.584Z,27.31
2018-05-21T13:25:52.102Z,27.26
2018-05-21T13:28:24.645Z,27.32
2018-05-21T13:30:57.219Z,27.32
2018-05-21T13:33:30.029Z,27.33
2018-05-21T13:36:02.805Z,27.32
2018-05-21T13:38:36.267Z,27.50
2018-05-21T13:41:08.962Z,27.33
2018-05-21T13:43:41.743Z,27.28
2018-05-21T13:46:14.819Z,27.29
2018-05-21T13:48:47.688Z,27.25
2018-05-21T13:51:20.601Z,27.35
2018-05-21T13:53:53.508Z,27.29
2018-05-21T13:56:26.442Z,27.27
2018-05-21T13:58:59.114Z,27.34
2018-05-21T14:01:31.780Z,27.36
2018-05-21T14:04:04.357Z,27.40
2018-05-21T14:06:37.059Z,27.46
2018-05-21T14:09:09.650Z,27.54
2018-05-21T14:11:42.315Z,27.23
2018-05-21T14:14:14.906Z,27.11
2018-05-21T14:16:47.701Z,27.08
2018-05-21T14:19:20.215Z,27.04
2018-05-21T14:21:52.818Z,27.02
2018-05-21T14:24:25.607Z,27.15
2018-05-21T14:26:58.258Z,27.16
2018-05-21T14:29:31.318Z,26.94
2018-05-21T14:32:04.142Z,27.10
2018-05-21T14:34:36.800Z,27.24
2018-05-21T14:37:09.404Z,27.31
2018-05-21T14:39:41.931Z,27.42
2018-05-21T14:42:14.472Z,27.00
2018-05-21T14:44:47.005Z,27.04
2018-05-21T14:47:19.615Z,26.86
2018-05-21T14:49:52.199Z,26.85
2018-05-21T14:52:24.730Z,26.98
2018-05-21T14:54:57.304Z,26.94
2018-05-21T14:57:29.812Z,27.03
2018-05-21T15:00:02.341Z,26.88
2018-05-21T15:02:34.960Z,26.94
2018-05-21T15:05:08.120Z,26.91
2018-05-21T15:07:40.735Z,26.99
2018-05-21T15:10:13.431Z,26.68
2018-05-21T15:12:46.414Z,26.77
2018-05-21T15:15:18.987Z,26.59
2018-05-21T15:17:51.589Z,26.42
2018-05-21T15:20:24.158Z,26.58
2018-05-21T15:22:56.716Z,26.62
2018-05-21T15:25:29.635Z,26.49
2018-05-21T15:28:02.433Z,26.40
2018-05-21T15:30:35.226Z,26.51
2018-05-21T15:33:07.902Z,26.50
2018-05-21T15:35:40.558Z,26.48
2018-05-21T15:38:13.162Z,26.43
2018-05-21T15:40:46.035Z,26.50
2018-05-21T15:43:18.751Z,26.62
2018-05-21T15:45:51.273Z,26.60
2018-05-21T15:48:24.078Z,26.51
2018-05-21T15:50:56.644Z,26.37
2018-05-21T15:53:29.189Z,26.37
2018-05-21T15:56:01.781Z,26.44
2018-05-21T15:58:35.212Z,26.39
2018-05-21T16:01:08.531Z,26.18
2018-05-21T16:03:41.359Z,26.21
2018-05-21T16:06:13.868Z,26.23
2018-05-21T16:08:46.497Z,26.29
2018-05-21T16:11:19.037Z,26.12
2018-05-21T16:13:51.570Z,26.05
2018-05-21T16:16:24.309Z,26.04
2018-05-21T16:18:56.856Z,26.15
2018-05-21T16:21:29.382Z,26.29
2018-05-21T16:24:01.914Z,26.32
2018-05-21T16:26:34.529Z,26.09
2018-05-21T16:29:07.988Z,26.12
2018-05-21T16:31:40.516Z,26.07
2018-05-21T16:34:13.077Z,26.22
2018-05-21T16:36:45.616Z,26.34
2018-05-21T16:39:18.152Z,26.16
2018-05-21T16:41:50.662Z,26.15
2018-05-21T16:44:23.194Z,26.22
2018-05-21T16:46:55.711Z,26.16
2018-05-21T16:49:28.296Z,26.20
2018-05-21T16:52:00.800Z,26.60
2018-05-21T16:54:33.340Z,26.89
2018-05-21T16:57:07.554Z,26.59
2018-05-21T16:59:40.074Z,26.91
2018-05-21T17:02:12.616Z,26.76
2018-05-21T17:04:45.129Z,26.35
2018-05-21T17:07:17.711Z,26.09
2018-05-21T17:09:50.193Z,26.04
2018-05-21T17:12:22.729Z,25.91
2018-05-21T17:14:55.303Z,25.87
2018-05-21T17:17:27.859Z,25.92
2018-05-21T17:20:00.363Z,25.73
2018-05-21T17:22:32.889Z,25.69
2018-05-21T17:25:08.551Z,25.65
2018-05-21T17:27:41.093Z,25.62
2018-05-21T17:30:13.629Z,25.61
2018-05-21T17:32:46.165Z,25.45
2018-05-21T17:35:18.666Z,25.58
2018-05-21T17:37:51.199Z,25.59
2018-05-21T17:40:23.706Z,25.54
2018-05-21T17:42:56.221Z,25.37
2018-05-21T17:45:28.733Z,25.22
2018-05-21T17:48:01.262Z,25.28
2018-05-21T17:50:33.810Z,25.19
2018-05-21T17:53:06.665Z,25.10
2018-05-21T17:55:39.222Z,25.09
2018-05-21T17:58:11.768Z,25.13
2018-05-21T18:00:44.286Z,24.93
2018-05-21T18:03:16.878Z,24.84
2018-05-21T18:05:49.527Z,24.80
2018-05-21T18:08:22.085Z,24.72
2018-05-21T18:10:54.595Z,24.58
2018-05-21T18:13:27.122Z,24.47
2018-05-21T18:15:59.625Z,24.44
2018-05-21T18:18:32.153Z,24.41
2018-05-21T18:21:04.973Z,24.19
2018-05-21T18:23:38.128Z,24.27
2018-05-21T18:26:10.655Z,24.27
2018-05-21T18:28:43.184Z,24.15
2018-05-21T18:31:15.697Z,24.12
2018-05-21T18:33:48.220Z,24.08
2018-05-21T18:36:20.724Z,24.02
2018-05-21T18:38:54.015Z,24.03
2018-05-21T18:41:26.542Z,23.90
2018-05-21T18:43:59.087Z,23.75
2018-05-21T18:46:31.593Z,23.71
2018-05-21T18:49:04.239Z,23.63
2018-05-21T18:51:37.326Z,23.58
2018-05-21T18:54:10.302Z,23.56
2018-05-21T18:56:42.824Z,23.47
2018-05-21T18:59:15.380Z,23.32
2018-05-21T19:01:47.896Z,23.17
2018-05-21T19:04:20.451Z,23.10
2018-05-21T19:06:53.018Z,23.02
2018-05-21T19:09:25.561Z,22.94
2018-05-21T19:11:58.074Z,22.86
2018-05-21T19:14:30.610Z,22.83
2018-05-21T19:17:03.291Z,22.74
2018-05-21T19:19:37.953Z,22.63
2018-05-21T19:22:11.429Z,22.51
2018-05-21T19:24:43.966Z,22.37
2018-05-21T19:27:16.527Z,22.28
2018-05-21T19:29:49.055Z,22.16
2018-05-21T19:32:21.584Z,21.98
2018-05-21T19:34:54.157Z,21.90
2018-05-21T19:37:26.663Z,21.78
2018-05-21T19:39:59.192Z,21.70
2018-05-21T19:42:31.693Z,21.58
2018-05-21T19:45:04.265Z,21.51
2018-05-21T19:47:36.956Z,21.39
2018-05-21T19:50:09.522Z,21.23
2018-05-21T19:52:42.054Z,21.07
2018-05-21T19:55:14.597Z,20.93
2018-05-21T19:57:47.108Z,20.80
2018-05-21T20:00:19.631Z,20.72
2018-05-21T20:02:52.134Z,20.57
2018-05-21T20:05:24.657Z,20.45
2018-05-21T20:07:57.180Z,20.36
2018-05-21T20:10:29.704Z,20.28
2018-05-21T20:13:02.233Z,20.16
2018-05-21T20:15:34.774Z,20.04
2018-05-21T20:18:07.558Z,19.91
2018-05-21T20:20:42.931Z,19.81
2018-05-21T20:23:15.542Z,19.71
2018-05-21T20:25:48.049Z,19.62
2018-05-21T20:28:20.572Z,19.51
2018-05-21T20:30:53.083Z,19.42
2018-05-21T20:33:25.619Z,19.33
2018-05-21T20:35:58.120Z,19.19
2018-05-21T20:38:30.649Z,19.10
2018-05-21T20:41:03.148Z,19.00
2018-05-21T20:43:36.516Z,18.89
2018-05-21T20:46:09.040Z,18.81
2018-05-21T20:48:41.592Z,18.74
2018-05-21T20:51:14.129Z,18.66
2018-05-21T20:53:46.665Z,18.58
2018-05-21T20:56:19.181Z,18.51
2018-05-21T20:58:51.715Z,18.46
2018-05-21T21:01:24.318Z,18.39
2018-05-21T21:03:56.793Z,18.31
2018-05-21T21:06:29.319Z,18.23
2018-05-21T21:09:01.848Z,18.14
2018-05-21T21:11:34.355Z,18.03
2018-05-21T21:14:06.951Z,17.95
2018-05-21T21:16:40.112Z,17.87
2018-05-21T21:19:12.649Z,17.76
2018-05-21T21:21:45.595Z,17.71
2018-05-21T21:24:18.194Z,17.67
2018-05-21T21:26:50.693Z,17.61
2018-05-21T21:29:23.219Z,17.54
2018-05-21T21:31:55.723Z,17.47
2018-05-21T21:34:28.259Z,17.38
2018-05-21T21:37:00.777Z,17.29
2018-05-21T21:39:33.305Z,17.21
2018-05-21T21:42:06.477Z,17.14
2018-05-21T21:44:39.058Z,17.05
2018-05-21T21:47:11.567Z,16.93
2018-05-21T21:49:45.089Z,16.79
2018-05-21T21:52:17.627Z,16.77
2018-05-21T21:54:50.146Z,16.69
2018-05-21T21:57:22.670Z,16.69
2018-05-21T21:59:55.257Z,16.68
2018-05-21T22:02:27.768Z,16.66
2018-05-21T22:05:00.294Z,16.67
2018-05-21T22:07:32.791Z,16.52
2018-05-21T22:10:05.958Z,16.46
2018-05-21T22:12:38.475Z,16.42
2018-05-21T22:15:11.015Z,16.30
2018-05-21T22:17:43.544Z,16.22
2018-05-21T22:20:16.087Z,16.21
2018-05-21T22:22:48.614Z,16.21
2018-05-21T22:25:21.146Z,16.22
2018-05-21T22:27:53.670Z,16.22
2018-05-21T22:30:26.200Z,16.17
2018-05-21T22:32:58.699Z,16.16
2018-05-21T22:35:31.220Z,16.01
2018-05-21T22:38:03.781Z,15.95
2018-05-21T22:40:36.726Z,15.87
2018-05-21T22:43:09.382Z,15.77
2018-05-21T22:45:41.962Z,15.77
2018-05-21T22:48:14.909Z,15.73
2018-05-21T22:50:47.546Z,15.72
2018-05-21T22:53:20.135Z,15.73
2018-05-21T22:55:52.737Z,15.77
2018-05-21T22:58:25.272Z,15.77
2018-05-21T23:00:57.877Z,15.74
2018-05-21T23:03:30.371Z,15.75
2018-05-21T23:06:02.901Z,15.76
2018-05-21T23:08:36.236Z,15.73
2018-05-21T23:11:08.803Z,15.73
2018-05-21T23:13:41.360Z,15.68
2018-05-21T23:16:13.897Z,15.66
2018-05-21T23:18:46.393Z,15.63
2018-05-21T23:21:18.917Z,15.59
2018-05-21T23:23:51.421Z,15.57
2018-05-21T23:26:23.956Z,15.51
2018-05-21T23:28:56.458Z,15.48
2018-05-21T23:31:28.976Z,15.44
2018-05-21T23:34:01.480Z,15.40
2018-05-21T23:36:33.994Z,15.37
2018-05-21T23:39:06.972Z,15.37
2018-05-21T23:41:39.517Z,15.30
2018-05-21T23:44:12.124Z,15.27
2018-05-21T23:46:44.635Z,15.17
2018-05-21T23:49:17.158Z,15.13
2018-05-21T23:51:49.660Z,15.04
2018-05-21T23:54:22.188Z,14.97
2018-05-21T23:56:54.695Z,14.91
2018-05-21T23:59:27.210Z,14.89
